sensor_id;sensor_type;location;lat;lon;timestamp;temperature;humidity
13960;DHT22;7052;51.050;3.716;2023-05-07T00:00:00;16.90;99.90
13960;DHT22;7052;51.050;3.716;2023-05-07T00:02:30;16.90;99.90
13960;DHT22;7052;51.050;3.716;2023-05-07T00:04:58;16.90;99.90
13960;DHT22;7052;51.050;3.716;2023-05-07T00:07:25;16.90;99.90
13960;DHT22;7052;51.050;3.716;2023-05-07T00:09:52;16.90;99.90
13960;DHT22;7052;51.050;3.716;2023-05-07T00:12:19;16.90;99.90
13960;DHT22;7052;51.050;3.716;2023-05-07T00:14:46;16.90;99.90
13960;DHT22;7052;51.050;3.716;2023-05-07T00:17:13;16.90;99.90
13960;DHT22;7052;51.050;3.716;2023-05-07T00:19:42;16.90;99.90
13960;DHT22;7052;51.050;3.716;2023-05-07T00:22:13;16.90;99.90
13960;DHT22;7052;51.050;3.716;2023-05-07T00:24:41;16.90;99.90
13960;DHT22;7052;51.050;3.716;2023-05-07T00:27:08;16.80;99.90
13960;DHT22;7052;51.050;3.716;2023-05-07T00:29:35;16.90;99.90
13960;DHT22;7052;51.050;3.716;2023-05-07T00:32:03;16.90;99.90
13960;DHT22;7052;51.050;3.716;2023-05-07T00:34:31;16.90;99.90
13960;DHT22;7052;51.050;3.716;2023-05-07T00:37:01;16.80;99.90
13960;DHT22;7052;51.050;3.716;2023-05-07T00:39:30;16.80;99.90
13960;DHT22;7052;51.050;3.716;2023-05-07T00:41:59;16.80;99.90
13960;DHT22;7052;51.050;3.716;2023-05-07T00:44:26;16.80;99.90
13960;DHT22;7052;51.050;3.716;2023-05-07T00:46:54;16.80;99.90
13960;DHT22;7052;51.050;3.716;2023-05-07T00:49:22;16.80;99.90
13960;DHT22;7052;51.050;3.716;2023-05-07T00:51:52;16.80;99.90
13960;DHT22;7052;51.050;3.716;2023-05-07T00:54:21;16.80;99.90
13960;DHT22;7052;51.050;3.716;2023-05-07T00:56:48;16.80;99.90
13960;DHT22;7052;51.050;3.716;2023-05-07T00:59:17;16.80;99.90
13960;DHT22;7052;51.050;3.716;2023-05-07T01:01:44;16.70;99.90
13960;DHT22;7052;51.050;3.716;2023-05-07T01:04:11;16.80;99.90
13960;DHT22;7052;51.050;3.716;2023-05-07T01:06:38;16.70;99.90
13960;DHT22;7052;51.050;3.716;2023-05-07T01:09:06;16.70;99.90
13960;DHT22;7052;51.050;3.716;2023-05-07T01:11:36;16.70;99.90
13960;DHT22;7052;51.050;3.716;2023-05-07T01:14:04;16.70;99.90
13960;DHT22;7052;51.050;3.716;2023-05-07T01:16:31;16.70;99.90
13960;DHT22;7052;51.050;3.716;2023-05-07T01:18:59;16.60;99.90
13960;DHT22;7052;51.050;3.716;2023-05-07T01:21:32;16.60;99.90
13960;DHT22;7052;51.050;3.716;2023-05-07T01:24:02;16.60;99.90
13960;DHT22;7052;51.050;3.716;2023-05-07T01:26:31;16.60;99.90
13960;DHT22;7052;51.050;3.716;2023-05-07T01:28:57;16.60;99.90
13960;DHT22;7052;51.050;3.716;2023-05-07T01:31:26;16.50;99.90
13960;DHT22;7052;51.050;3.716;2023-05-07T01:33:54;16.50;99.90
13960;DHT22;7052;51.050;3.716;2023-05-07T01:36:23;16.50;99.90
13960;DHT22;7052;51.050;3.716;2023-05-07T01:38:53;16.50;99.90
13960;DHT22;7052;51.050;3.716;2023-05-07T01:41:21;16.50;99.90
13960;DHT22;7052;51.050;3.716;2023-05-07T01:43:51;16.50;99.90
13960;DHT22;7052;51.050;3.716;2023-05-07T01:46:19;16.50;99.90
13960;DHT22;7052;51.050;3.716;2023-05-07T01:48:49;16.50;99.90
13960;DHT22;7052;51.050;3.716;2023-05-07T01:51:18;16.50;99.90
13960;DHT22;7052;51.050;3.716;2023-05-07T01:53:45;16.50;99.90
13960;DHT22;7052;51.050;3.716;2023-05-07T01:56:16;16.50;99.90
13960;DHT22;7052;51.050;3.716;2023-05-07T01:58:45;16.50;99.90
13960;DHT22;7052;51.050;3.716;2023-05-07T02:01:13;16.50;99.90
13960;DHT22;7052;51.050;3.716;2023-05-07T02:03:40;16.50;99.90
13960;DHT22;7052;51.050;3.716;2023-05-07T02:06:08;16.50;99.90
13960;DHT22;7052;51.050;3.716;2023-05-07T02:08:35;16.50;99.90
13960;DHT22;7052;51.050;3.716;2023-05-07T02:11:04;16.40;99.90
13960;DHT22;7052;51.050;3.716;2023-05-07T02:13:33;16.40;99.90
13960;DHT22;7052;51.050;3.716;2023-05-07T02:16:03;16.40;99.90
13960;DHT22;7052;51.050;3.716;2023-05-07T02:18:31;16.40;99.90
13960;DHT22;7052;51.050;3.716;2023-05-07T02:20:59;16.40;99.90
13960;DHT22;7052;51.050;3.716;2023-05-07T02:23:26;16.30;99.90
13960;DHT22;7052;51.050;3.716;2023-05-07T02:25:56;16.30;99.90
13960;DHT22;7052;51.050;3.716;2023-05-07T02:28:23;16.30;99.90
13960;DHT22;7052;51.050;3.716;2023-05-07T02:30:51;16.30;99.90
13960;DHT22;7052;51.050;3.716;2023-05-07T02:33:19;16.30;99.90
13960;DHT22;7052;51.050;3.716;2023-05-07T02:35:46;16.30;99.90
13960;DHT22;7052;51.050;3.716;2023-05-07T02:38:17;16.30;99.90
13960;DHT22;7052;51.050;3.716;2023-05-07T02:40:46;16.20;99.90
13960;DHT22;7052;51.050;3.716;2023-05-07T02:43:13;16.20;99.90
13960;DHT22;7052;51.050;3.716;2023-05-07T02:45:40;16.20;99.90
13960;DHT22;7052;51.050;3.716;2023-05-07T02:48:08;16.20;99.90
13960;DHT22;7052;51.050;3.716;2023-05-07T02:50:37;16.20;99.90
13960;DHT22;7052;51.050;3.716;2023-05-07T02:53:04;16.20;99.90
13960;DHT22;7052;51.050;3.716;2023-05-07T02:55:32;16.20;99.90
13960;DHT22;7052;51.050;3.716;2023-05-07T02:57:59;16.10;99.90
13960;DHT22;7052;51.050;3.716;2023-05-07T03:00:27;16.20;99.90
13960;DHT22;7052;51.050;3.716;2023-05-07T03:02:58;16.10;99.90
13960;DHT22;7052;51.050;3.716;2023-05-07T03:05:25;16.10;99.90
13960;DHT22;7052;51.050;3.716;2023-05-07T03:07:55;16.20;99.90
13960;DHT22;7052;51.050;3.716;2023-05-07T03:10:22;16.20;99.90
13960;DHT22;7052;51.050;3.716;2023-05-07T03:12:51;16.20;99.90
13960;DHT22;7052;51.050;3.716;2023-05-07T03:15:18;16.10;99.90
13960;DHT22;7052;51.050;3.716;2023-05-07T03:17:46;16.20;99.90
13960;DHT22;7052;51.050;3.716;2023-05-07T03:20:14;16.20;99.90
13960;DHT22;7052;51.050;3.716;2023-05-07T03:22:43;16.20;99.90
13960;DHT22;7052;51.050;3.716;2023-05-07T03:25:12;16.20;99.90
13960;DHT22;7052;51.050;3.716;2023-05-07T03:27:42;16.20;99.90
13960;DHT22;7052;51.050;3.716;2023-05-07T03:30:11;16.20;99.90
13960;DHT22;7052;51.050;3.716;2023-05-07T03:32:39;16.20;99.90
13960;DHT22;7052;51.050;3.716;2023-05-07T03:35:08;16.20;99.90
13960;DHT22;7052;51.050;3.716;2023-05-07T03:37:35;16.20;99.90
13960;DHT22;7052;51.050;3.716;2023-05-07T03:40:03;16.20;99.90
13960;DHT22;7052;51.050;3.716;2023-05-07T03:42:33;16.20;99.90
13960;DHT22;7052;51.050;3.716;2023-05-07T03:45:12;16.20;99.90
13960;DHT22;7052;51.050;3.716;2023-05-07T03:47:40;16.20;99.90
13960;DHT22;7052;51.050;3.716;2023-05-07T03:50:07;16.20;99.90
13960;DHT22;7052;51.050;3.716;2023-05-07T03:52:35;16.20;99.90
13960;DHT22;7052;51.050;3.716;2023-05-07T03:55:03;16.20;99.90
13960;DHT22;7052;51.050;3.716;2023-05-07T03:57:33;16.20;99.90
13960;DHT22;7052;51.050;3.716;2023-05-07T04:00:02;16.20;99.90
13960;DHT22;7052;51.050;3.716;2023-05-07T04:02:31;16.20;99.90
13960;DHT22;7052;51.050;3.716;2023-05-07T04:04:58;16.20;99.90
13960;DHT22;7052;51.050;3.716;2023-05-07T04:07:26;16.20;99.90
13960;DHT22;7052;51.050;3.716;2023-05-07T04:09:53;16.20;99.90
13960;DHT22;7052;51.050;3.716;2023-05-07T04:12:21;16.20;99.90
13960;DHT22;7052;51.050;3.716;2023-05-07T04:14:53;16.20;99.90
13960;DHT22;7052;51.050;3.716;2023-05-07T04:17:20;16.20;99.90
13960;DHT22;7052;51.050;3.716;2023-05-07T04:19:47;16.20;99.90
13960;DHT22;7052;51.050;3.716;2023-05-07T04:22:14;16.20;99.90
13960;DHT22;7052;51.050;3.716;2023-05-07T04:24:43;16.20;99.90
13960;DHT22;7052;51.050;3.716;2023-05-07T04:27:11;16.20;99.90
13960;DHT22;7052;51.050;3.716;2023-05-07T04:29:38;16.20;99.90
13960;DHT22;7052;51.050;3.716;2023-05-07T04:32:09;16.20;99.90
13960;DHT22;7052;51.050;3.716;2023-05-07T04:34:36;16.20;99.90
13960;DHT22;7052;51.050;3.716;2023-05-07T04:37:04;16.20;99.90
13960;DHT22;7052;51.050;3.716;2023-05-07T04:39:33;16.20;99.90
13960;DHT22;7052;51.050;3.716;2023-05-07T04:42:01;16.20;99.90
13960;DHT22;7052;51.050;3.716;2023-05-07T04:44:30;16.30;99.90
13960;DHT22;7052;51.050;3.716;2023-05-07T04:46:58;16.30;99.90
13960;DHT22;7052;51.050;3.716;2023-05-07T04:49:31;16.20;99.90
13960;DHT22;7052;51.050;3.716;2023-05-07T04:52:00;16.20;99.90
13960;DHT22;7052;51.050;3.716;2023-05-07T04:54:29;16.20;99.90
13960;DHT22;7052;51.050;3.716;2023-05-07T04:56:57;16.20;99.90
13960;DHT22;7052;51.050;3.716;2023-05-07T04:59:26;16.20;99.90
13960;DHT22;7052;51.050;3.716;2023-05-07T05:01:53;16.20;99.90
13960;DHT22;7052;51.050;3.716;2023-05-07T05:04:23;16.20;99.90
13960;DHT22;7052;51.050;3.716;2023-05-07T05:06:54;16.20;99.90
13960;DHT22;7052;51.050;3.716;2023-05-07T05:09:22;16.10;99.90
13960;DHT22;7052;51.050;3.716;2023-05-07T05:11:49;16.20;99.90
13960;DHT22;7052;51.050;3.716;2023-05-07T05:14:18;16.20;99.90
13960;DHT22;7052;51.050;3.716;2023-05-07T05:16:45;16.20;99.90
13960;DHT22;7052;51.050;3.716;2023-05-07T05:19:15;16.10;99.90
13960;DHT22;7052;51.050;3.716;2023-05-07T05:21:44;16.20;99.90
13960;DHT22;7052;51.050;3.716;2023-05-07T05:24:13;16.20;99.90
13960;DHT22;7052;51.050;3.716;2023-05-07T05:26:40;16.10;99.90
13960;DHT22;7052;51.050;3.716;2023-05-07T05:29:07;16.20;99.90
13960;DHT22;7052;51.050;3.716;2023-05-07T05:31:37;16.10;99.90
13960;DHT22;7052;51.050;3.716;2023-05-07T05:34:04;16.10;99.90
13960;DHT22;7052;51.050;3.716;2023-05-07T05:36:31;16.10;99.90
13960;DHT22;7052;51.050;3.716;2023-05-07T05:38:59;16.00;99.90
13960;DHT22;7052;51.050;3.716;2023-05-07T05:41:34;16.00;99.90
13960;DHT22;7052;51.050;3.716;2023-05-07T05:44:01;16.00;99.90
13960;DHT22;7052;51.050;3.716;2023-05-07T05:46:30;16.00;99.90
13960;DHT22;7052;51.050;3.716;2023-05-07T05:48:57;15.90;99.90
13960;DHT22;7052;51.050;3.716;2023-05-07T05:51:26;15.90;99.90
13960;DHT22;7052;51.050;3.716;2023-05-07T05:53:53;15.90;99.90
13960;DHT22;7052;51.050;3.716;2023-05-07T05:56:22;15.90;99.90
13960;DHT22;7052;51.050;3.716;2023-05-07T05:58:53;15.80;99.90
13960;DHT22;7052;51.050;3.716;2023-05-07T06:01:20;15.80;99.90
13960;DHT22;7052;51.050;3.716;2023-05-07T06:03:47;15.80;99.90
13960;DHT22;7052;51.050;3.716;2023-05-07T06:06:21;15.80;99.90
13960;DHT22;7052;51.050;3.716;2023-05-07T06:08:49;15.80;99.90
13960;DHT22;7052;51.050;3.716;2023-05-07T06:11:16;15.70;99.90
13960;DHT22;7052;51.050;3.716;2023-05-07T06:13:43;15.70;99.90
13960;DHT22;7052;51.050;3.716;2023-05-07T06:16:14;15.70;99.90
13960;DHT22;7052;51.050;3.716;2023-05-07T06:18:42;15.60;99.90
13960;DHT22;7052;51.050;3.716;2023-05-07T06:21:11;15.60;99.90
13960;DHT22;7052;51.050;3.716;2023-05-07T06:23:44;15.60;99.90
13960;DHT22;7052;51.050;3.716;2023-05-07T06:26:11;15.60;99.90
13960;DHT22;7052;51.050;3.716;2023-05-07T06:28:38;15.60;99.90
13960;DHT22;7052;51.050;3.716;2023-05-07T06:31:14;15.60;99.90
13960;DHT22;7052;51.050;3.716;2023-05-07T06:33:43;15.50;99.90
13960;DHT22;7052;51.050;3.716;2023-05-07T06:36:14;15.50;99.90
13960;DHT22;7052;51.050;3.716;2023-05-07T06:38:42;15.50;99.90
13960;DHT22;7052;51.050;3.716;2023-05-07T06:41:09;15.60;99.90
13960;DHT22;7052;51.050;3.716;2023-05-07T06:43:36;15.60;99.90
13960;DHT22;7052;51.050;3.716;2023-05-07T06:46:04;15.50;99.90
13960;DHT22;7052;51.050;3.716;2023-05-07T06:48:38;15.60;99.90
13960;DHT22;7052;51.050;3.716;2023-05-07T06:51:05;15.60;99.90
13960;DHT22;7052;51.050;3.716;2023-05-07T06:53:37;15.60;99.90
13960;DHT22;7052;51.050;3.716;2023-05-07T06:56:09;15.60;99.90
13960;DHT22;7052;51.050;3.716;2023-05-07T06:58:37;15.60;99.90
13960;DHT22;7052;51.050;3.716;2023-05-07T07:01:04;15.60;99.90
13960;DHT22;7052;51.050;3.716;2023-05-07T07:03:32;15.60;99.90
13960;DHT22;7052;51.050;3.716;2023-05-07T07:06:00;15.70;99.90
13960;DHT22;7052;51.050;3.716;2023-05-07T07:08:29;15.70;99.90
13960;DHT22;7052;51.050;3.716;2023-05-07T07:10:56;15.70;99.90
13960;DHT22;7052;51.050;3.716;2023-05-07T07:13:23;15.70;99.90
13960;DHT22;7052;51.050;3.716;2023-05-07T07:15:51;15.80;99.90
13960;DHT22;7052;51.050;3.716;2023-05-07T07:18:19;15.80;99.90
13960;DHT22;7052;51.050;3.716;2023-05-07T07:20:52;15.80;99.90
13960;DHT22;7052;51.050;3.716;2023-05-07T07:23:20;15.80;99.90
13960;DHT22;7052;51.050;3.716;2023-05-07T07:25:47;15.80;99.90
13960;DHT22;7052;51.050;3.716;2023-05-07T07:28:14;15.90;99.90
13960;DHT22;7052;51.050;3.716;2023-05-07T07:30:41;15.90;99.90
13960;DHT22;7052;51.050;3.716;2023-05-07T07:33:11;15.90;99.90
13960;DHT22;7052;51.050;3.716;2023-05-07T07:35:39;16.00;99.90
13960;DHT22;7052;51.050;3.716;2023-05-07T07:38:07;16.00;99.90
13960;DHT22;7052;51.050;3.716;2023-05-07T07:40:37;16.00;99.90
13960;DHT22;7052;51.050;3.716;2023-05-07T07:43:05;16.00;99.90
13960;DHT22;7052;51.050;3.716;2023-05-07T07:45:32;16.00;99.90
13960;DHT22;7052;51.050;3.716;2023-05-07T07:47:59;16.00;99.90
13960;DHT22;7052;51.050;3.716;2023-05-07T07:50:26;16.00;99.90
13960;DHT22;7052;51.050;3.716;2023-05-07T07:52:53;16.00;99.90
13960;DHT22;7052;51.050;3.716;2023-05-07T07:55:23;16.10;99.90
13960;DHT22;7052;51.050;3.716;2023-05-07T07:57:50;16.00;99.90
13960;DHT22;7052;51.050;3.716;2023-05-07T08:00:21;16.00;99.90
13960;DHT22;7052;51.050;3.716;2023-05-07T08:02:49;16.00;99.90
13960;DHT22;7052;51.050;3.716;2023-05-07T08:05:16;16.00;99.90
13960;DHT22;7052;51.050;3.716;2023-05-07T08:07:43;16.00;99.90
13960;DHT22;7052;51.050;3.716;2023-05-07T08:10:11;16.00;99.90
13960;DHT22;7052;51.050;3.716;2023-05-07T08:12:40;16.00;99.90
13960;DHT22;7052;51.050;3.716;2023-05-07T08:15:08;16.00;99.90
13960;DHT22;7052;51.050;3.716;2023-05-07T08:17:35;16.00;99.90
13960;DHT22;7052;51.050;3.716;2023-05-07T08:20:03;16.00;99.90
13960;DHT22;7052;51.050;3.716;2023-05-07T08:22:33;16.10;99.90
13960;DHT22;7052;51.050;3.716;2023-05-07T08:25:00;16.10;99.90
13960;DHT22;7052;51.050;3.716;2023-05-07T08:27:28;16.10;99.90
13960;DHT22;7052;51.050;3.716;2023-05-07T08:29:56;16.10;99.90
13960;DHT22;7052;51.050;3.716;2023-05-07T08:32:29;16.20;99.90
13960;DHT22;7052;51.050;3.716;2023-05-07T08:34:57;16.20;99.90
13960;DHT22;7052;51.050;3.716;2023-05-07T08:37:25;16.20;99.90
13960;DHT22;7052;51.050;3.716;2023-05-07T08:39:53;16.30;99.90
13960;DHT22;7052;51.050;3.716;2023-05-07T08:42:20;16.30;99.90
13960;DHT22;7052;51.050;3.716;2023-05-07T08:44:50;16.30;99.90
13960;DHT22;7052;51.050;3.716;2023-05-07T08:47:20;16.30;99.90
13960;DHT22;7052;51.050;3.716;2023-05-07T08:49:56;16.30;99.90
13960;DHT22;7052;51.050;3.716;2023-05-07T08:52:25;16.40;99.90
13960;DHT22;7052;51.050;3.716;2023-05-07T08:54:53;16.40;99.90
13960;DHT22;7052;51.050;3.716;2023-05-07T08:57:20;16.50;99.90
13960;DHT22;7052;51.050;3.716;2023-05-07T08:59:49;16.60;99.90
13960;DHT22;7052;51.050;3.716;2023-05-07T09:02:18;16.60;99.90
13960;DHT22;7052;51.050;3.716;2023-05-07T09:04:48;16.60;99.90
13960;DHT22;7052;51.050;3.716;2023-05-07T09:07:17;16.70;99.90
13960;DHT22;7052;51.050;3.716;2023-05-07T09:09:45;16.80;99.90
13960;DHT22;7052;51.050;3.716;2023-05-07T09:12:13;16.80;99.90
13960;DHT22;7052;51.050;3.716;2023-05-07T09:14:41;16.80;99.90
13960;DHT22;7052;51.050;3.716;2023-05-07T09:17:10;16.90;99.90
13960;DHT22;7052;51.050;3.716;2023-05-07T09:19:40;16.90;99.90
13960;DHT22;7052;51.050;3.716;2023-05-07T09:22:13;16.90;99.90
13960;DHT22;7052;51.050;3.716;2023-05-07T09:24:59;17.00;99.90
13960;DHT22;7052;51.050;3.716;2023-05-07T09:27:26;17.00;99.90
13960;DHT22;7052;51.050;3.716;2023-05-07T09:29:53;17.10;99.90
13960;DHT22;7052;51.050;3.716;2023-05-07T09:32:20;17.10;99.90
13960;DHT22;7052;51.050;3.716;2023-05-07T09:34:49;17.20;99.90
13960;DHT22;7052;51.050;3.716;2023-05-07T09:37:19;17.20;99.90
13960;DHT22;7052;51.050;3.716;2023-05-07T09:39:48;17.20;99.90
13960;DHT22;7052;51.050;3.716;2023-05-07T09:42:23;17.30;99.90
13960;DHT22;7052;51.050;3.716;2023-05-07T09:44:56;17.40;99.90
13960;DHT22;7052;51.050;3.716;2023-05-07T09:47:24;17.40;99.90
13960;DHT22;7052;51.050;3.716;2023-05-07T09:49:56;17.50;99.90
13960;DHT22;7052;51.050;3.716;2023-05-07T09:52:34;17.60;99.90
13960;DHT22;7052;51.050;3.716;2023-05-07T09:55:03;17.70;99.90
13960;DHT22;7052;51.050;3.716;2023-05-07T09:57:32;17.80;99.90
13960;DHT22;7052;51.050;3.716;2023-05-07T10:00:02;17.80;99.90
13960;DHT22;7052;51.050;3.716;2023-05-07T10:02:31;17.90;99.90
13960;DHT22;7052;51.050;3.716;2023-05-07T10:05:00;17.90;99.90
13960;DHT22;7052;51.050;3.716;2023-05-07T10:07:36;17.90;99.90
13960;DHT22;7052;51.050;3.716;2023-05-07T10:10:05;18.00;99.90
13960;DHT22;7052;51.050;3.716;2023-05-07T10:12:35;18.00;99.90
13960;DHT22;7052;51.050;3.716;2023-05-07T10:15:06;18.10;99.90
13960;DHT22;7052;51.050;3.716;2023-05-07T10:20:08;18.20;99.90
13960;DHT22;7052;51.050;3.716;2023-05-07T10:22:52;18.30;99.90
13960;DHT22;7052;51.050;3.716;2023-05-07T10:25:28;18.40;99.90
13960;DHT22;7052;51.050;3.716;2023-05-07T10:27:59;18.40;99.90
13960;DHT22;7052;51.050;3.716;2023-05-07T10:30:33;18.50;99.90
13960;DHT22;7052;51.050;3.716;2023-05-07T10:33:09;18.50;99.90
13960;DHT22;7052;51.050;3.716;2023-05-07T10:35:41;18.60;99.90
13960;DHT22;7052;51.050;3.716;2023-05-07T10:38:19;18.70;99.90
13960;DHT22;7052;51.050;3.716;2023-05-07T10:40:46;18.90;99.90
13960;DHT22;7052;51.050;3.716;2023-05-07T10:43:13;19.00;99.90
13960;DHT22;7052;51.050;3.716;2023-05-07T10:45:40;19.00;99.90
13960;DHT22;7052;51.050;3.716;2023-05-07T10:48:11;19.10;99.90
13960;DHT22;7052;51.050;3.716;2023-05-07T10:50:40;19.10;99.90
13960;DHT22;7052;51.050;3.716;2023-05-07T10:53:25;19.30;99.90
13960;DHT22;7052;51.050;3.716;2023-05-07T10:56:25;19.40;99.90
13960;DHT22;7052;51.050;3.716;2023-05-07T10:58:53;19.40;99.90
13960;DHT22;7052;51.050;3.716;2023-05-07T11:01:52;19.40;99.90
13960;DHT22;7052;51.050;3.716;2023-05-07T11:04:19;19.40;99.90
13960;DHT22;7052;51.050;3.716;2023-05-07T11:10:05;19.30;99.90
13960;DHT22;7052;51.050;3.716;2023-05-07T11:12:53;19.20;99.90
13960;DHT22;7052;51.050;3.716;2023-05-07T11:15:36;19.10;99.90
13960;DHT22;7052;51.050;3.716;2023-05-07T11:18:04;19.10;99.90
13960;DHT22;7052;51.050;3.716;2023-05-07T11:20:52;19.10;99.90
13960;DHT22;7052;51.050;3.716;2023-05-07T11:23:57;19.20;99.90
13960;DHT22;7052;51.050;3.716;2023-05-07T11:26:45;19.30;99.90
13960;DHT22;7052;51.050;3.716;2023-05-07T11:29:16;19.30;99.90
13960;DHT22;7052;51.050;3.716;2023-05-07T11:31:48;19.30;99.90
13960;DHT22;7052;51.050;3.716;2023-05-07T11:34:33;19.20;99.90
13960;DHT22;7052;51.050;3.716;2023-05-07T11:37:05;19.20;99.90
13960;DHT22;7052;51.050;3.716;2023-05-07T11:39:47;19.20;99.90
13960;DHT22;7052;51.050;3.716;2023-05-07T11:42:30;19.10;99.90
13960;DHT22;7052;51.050;3.716;2023-05-07T11:44:59;19.20;99.90
13960;DHT22;7052;51.050;3.716;2023-05-07T11:47:30;19.20;99.90
13960;DHT22;7052;51.050;3.716;2023-05-07T11:50:02;19.30;99.90
13960;DHT22;7052;51.050;3.716;2023-05-07T11:52:31;19.50;99.90
13960;DHT22;7052;51.050;3.716;2023-05-07T11:55:01;19.50;99.90
13960;DHT22;7052;51.050;3.716;2023-05-07T11:57:33;19.40;99.90
13960;DHT22;7052;51.050;3.716;2023-05-07T12:00:01;19.40;99.90
13960;DHT22;7052;51.050;3.716;2023-05-07T12:02:36;19.40;99.90
13960;DHT22;7052;51.050;3.716;2023-05-07T12:05:16;19.40;99.90
13960;DHT22;7052;51.050;3.716;2023-05-07T12:07:56;19.40;99.90
13960;DHT22;7052;51.050;3.716;2023-05-07T12:10:28;19.50;99.90
13960;DHT22;7052;51.050;3.716;2023-05-07T12:13:00;19.50;99.90
13960;DHT22;7052;51.050;3.716;2023-05-07T12:15:28;19.60;99.90
13960;DHT22;7052;51.050;3.716;2023-05-07T12:17:57;19.90;99.90
13960;DHT22;7052;51.050;3.716;2023-05-07T12:20:26;20.00;99.90
13960;DHT22;7052;51.050;3.716;2023-05-07T12:22:54;20.00;99.90
13960;DHT22;7052;51.050;3.716;2023-05-07T12:25:22;20.10;99.90
13960;DHT22;7052;51.050;3.716;2023-05-07T12:27:52;20.20;99.90
13960;DHT22;7052;51.050;3.716;2023-05-07T12:30:24;20.20;99.90
13960;DHT22;7052;51.050;3.716;2023-05-07T12:32:53;20.20;99.90
13960;DHT22;7052;51.050;3.716;2023-05-07T12:35:27;20.30;99.90
13960;DHT22;7052;51.050;3.716;2023-05-07T12:37:58;20.40;99.90
13960;DHT22;7052;51.050;3.716;2023-05-07T12:40:35;20.50;99.90
13960;DHT22;7052;51.050;3.716;2023-05-07T12:43:03;20.60;99.90
13960;DHT22;7052;51.050;3.716;2023-05-07T12:45:41;20.70;99.90
13960;DHT22;7052;51.050;3.716;2023-05-07T12:48:10;20.80;99.90
13960;DHT22;7052;51.050;3.716;2023-05-07T12:50:38;20.80;99.90
13960;DHT22;7052;51.050;3.716;2023-05-07T12:53:07;20.90;99.90
13960;DHT22;7052;51.050;3.716;2023-05-07T12:55:42;21.00;99.90
13960;DHT22;7052;51.050;3.716;2023-05-07T12:58:16;21.00;99.90
13960;DHT22;7052;51.050;3.716;2023-05-07T13:00:48;21.20;99.90
13960;DHT22;7052;51.050;3.716;2023-05-07T13:03:30;21.10;99.90
13960;DHT22;7052;51.050;3.716;2023-05-07T13:06:00;21.20;99.90
13960;DHT22;7052;51.050;3.716;2023-05-07T13:08:32;21.30;99.90
13960;DHT22;7052;51.050;3.716;2023-05-07T13:11:03;21.30;99.90
13960;DHT22;7052;51.050;3.716;2023-05-07T13:13:34;21.50;99.90
13960;DHT22;7052;51.050;3.716;2023-05-07T13:16:05;21.60;99.90
13960;DHT22;7052;51.050;3.716;2023-05-07T13:18:34;21.60;99.90
13960;DHT22;7052;51.050;3.716;2023-05-07T13:21:01;21.60;99.90
13960;DHT22;7052;51.050;3.716;2023-05-07T13:23:29;21.60;99.90
13960;DHT22;7052;51.050;3.716;2023-05-07T13:25:56;21.70;99.90
13960;DHT22;7052;51.050;3.716;2023-05-07T13:28:25;21.50;99.90
13960;DHT22;7052;51.050;3.716;2023-05-07T13:30:54;21.50;99.90
13960;DHT22;7052;51.050;3.716;2023-05-07T13:33:25;21.60;99.90
13960;DHT22;7052;51.050;3.716;2023-05-07T13:35:52;21.60;99.90
13960;DHT22;7052;51.050;3.716;2023-05-07T13:38:19;21.70;99.90
13960;DHT22;7052;51.050;3.716;2023-05-07T13:40:49;21.70;99.90
13960;DHT22;7052;51.050;3.716;2023-05-07T13:43:25;21.80;99.90
13960;DHT22;7052;51.050;3.716;2023-05-07T13:46:00;21.60;99.50
13960;DHT22;7052;51.050;3.716;2023-05-07T13:48:28;21.50;99.90
13960;DHT22;7052;51.050;3.716;2023-05-07T13:50:55;21.40;99.90
13960;DHT22;7052;51.050;3.716;2023-05-07T13:53:23;21.20;99.90
13960;DHT22;7052;51.050;3.716;2023-05-07T13:55:51;21.00;99.90
13960;DHT22;7052;51.050;3.716;2023-05-07T13:58:18;20.90;99.90
13960;DHT22;7052;51.050;3.716;2023-05-07T14:00:47;20.70;99.90
13960;DHT22;7052;51.050;3.716;2023-05-07T14:03:18;20.50;99.90
13960;DHT22;7052;51.050;3.716;2023-05-07T14:05:47;20.40;99.90
13960;DHT22;7052;51.050;3.716;2023-05-07T14:08:14;20.20;99.90
13960;DHT22;7052;51.050;3.716;2023-05-07T14:10:45;20.10;99.90
13960;DHT22;7052;51.050;3.716;2023-05-07T14:13:15;20.00;99.90
13960;DHT22;7052;51.050;3.716;2023-05-07T14:15:42;19.80;99.90
13960;DHT22;7052;51.050;3.716;2023-05-07T14:18:13;19.70;99.90
13960;DHT22;7052;51.050;3.716;2023-05-07T14:20:42;19.70;99.90
13960;DHT22;7052;51.050;3.716;2023-05-07T14:23:13;19.60;99.90
13960;DHT22;7052;51.050;3.716;2023-05-07T14:25:40;19.50;99.90
13960;DHT22;7052;51.050;3.716;2023-05-07T14:28:09;19.30;99.90
13960;DHT22;7052;51.050;3.716;2023-05-07T14:30:36;19.10;99.90
13960;DHT22;7052;51.050;3.716;2023-05-07T14:33:03;19.00;99.90
13960;DHT22;7052;51.050;3.716;2023-05-07T14:35:30;18.80;99.90
13960;DHT22;7052;51.050;3.716;2023-05-07T14:38:00;18.70;99.90
13960;DHT22;7052;51.050;3.716;2023-05-07T14:40:30;18.50;99.90
13960;DHT22;7052;51.050;3.716;2023-05-07T14:42:58;18.40;99.90
13960;DHT22;7052;51.050;3.716;2023-05-07T14:45:27;18.30;99.90
13960;DHT22;7052;51.050;3.716;2023-05-07T14:47:54;18.30;99.90
13960;DHT22;7052;51.050;3.716;2023-05-07T14:50:21;18.30;99.90
13960;DHT22;7052;51.050;3.716;2023-05-07T14:52:48;18.30;99.90
13960;DHT22;7052;51.050;3.716;2023-05-07T14:55:17;18.30;99.90
13960;DHT22;7052;51.050;3.716;2023-05-07T14:57:46;18.30;99.90
13960;DHT22;7052;51.050;3.716;2023-05-07T15:00:14;18.30;99.90
13960;DHT22;7052;51.050;3.716;2023-05-07T15:02:42;18.30;99.90
13960;DHT22;7052;51.050;3.716;2023-05-07T15:05:10;18.30;99.90
13960;DHT22;7052;51.050;3.716;2023-05-07T15:07:36;18.40;99.90
13960;DHT22;7052;51.050;3.716;2023-05-07T15:10:05;18.50;99.90
13960;DHT22;7052;51.050;3.716;2023-05-07T15:12:33;18.50;99.90
13960;DHT22;7052;51.050;3.716;2023-05-07T15:15:03;18.60;99.90
13960;DHT22;7052;51.050;3.716;2023-05-07T15:17:30;18.70;99.90
13960;DHT22;7052;51.050;3.716;2023-05-07T15:20:00;18.90;99.90
13960;DHT22;7052;51.050;3.716;2023-05-07T15:22:27;19.20;99.90
13960;DHT22;7052;51.050;3.716;2023-05-07T15:24:53;19.40;99.90
13960;DHT22;7052;51.050;3.716;2023-05-07T15:27:22;19.50;99.90
13960;DHT22;7052;51.050;3.716;2023-05-07T15:29:50;19.70;99.90
13960;DHT22;7052;51.050;3.716;2023-05-07T15:38:21;19.90;99.90
13960;DHT22;7052;51.050;3.716;2023-05-07T15:40:58;19.90;99.90
13960;DHT22;7052;51.050;3.716;2023-05-07T15:43:25;19.90;99.90
13960;DHT22;7052;51.050;3.716;2023-05-07T15:45:52;20.00;99.90
13960;DHT22;7052;51.050;3.716;2023-05-07T15:48:21;20.00;99.90
13960;DHT22;7052;51.050;3.716;2023-05-07T15:50:48;20.00;99.90
13960;DHT22;7052;51.050;3.716;2023-05-07T15:53:21;20.00;99.90
13960;DHT22;7052;51.050;3.716;2023-05-07T15:55:52;19.90;99.90
13960;DHT22;7052;51.050;3.716;2023-05-07T15:58:20;19.80;99.90
13960;DHT22;7052;51.050;3.716;2023-05-07T16:00:49;19.70;99.90
13960;DHT22;7052;51.050;3.716;2023-05-07T16:03:18;19.60;99.90
13960;DHT22;7052;51.050;3.716;2023-05-07T16:05:59;19.50;99.90
13960;DHT22;7052;51.050;3.716;2023-05-07T16:08:30;19.30;99.90
13960;DHT22;7052;51.050;3.716;2023-05-07T16:10:58;19.20;99.90